Moises Benzaquen Rengifo Airport
SPMS : now visible

Airfield :











YOU CAN JOIN US ON...

 
LOGIN :

Register | Disclaimer

   EN    FR    IT 

 









Legend :    VFR   Marginal VFR   IFR   Intensive IFR   Very Intensive IFR
Visi :
Ceiling :
>= 8 km
>= 3000ft
5 to 8 km
1000 to 3000 ft
1500m to 5 km
500 to 1000 ft
800 to 1500m
200 to 500 ft
< 800m
< 200 ft
Symbols :   Thunderstorms  Fog  Heavy snow  Heavy precipitations  Wind > 20 kt






- Airport Elevation : 587 ft
- IATA code : YMS


SPMS - Moises Benzaquen Rengifo

METAR N/A
TAF SPMS
Valid from the 24 at 18:00 until the 25 at 18:00 UTC


241700Z 2418/2518 15005KT 9999 SCT015 BKN100 TX32/2420Z TN24/2511Z
TEMPO 2421/2501 5000 RADZ BKN010 BKN080
TEMPO 2512/2514 4000 BR SCT010 BKN080
SPIM FIR / South America



MET'MAP, your aeronautical weather chart ! - Copyright ORBIFLY December 2007 - Disclaimer

ORBIFLY MET'MAP TEAM :

Programming & Development : Alexandra Zaïnal
Concept & original design : Baudouin d'Aumeries
Assistance for programming : Marc-Olivier Méhu
Technical & hardware support : Manuel Goepfert

Contact : metmap@orbifly.com




SOURCES & CREDITS :

   NOAA       Earth
Advisory